createdAt,value
2023-03-21T00:01:04.783Z,71.20
2023-03-21T00:03:35.063Z,70.80
2023-03-21T00:06:07.171Z,70.20
2023-03-21T00:08:35.282Z,70.50
2023-03-21T00:11:05.933Z,70.80
2023-03-21T00:13:38.432Z,70.70
2023-03-21T00:16:10.904Z,70.40
2023-03-21T00:18:52.263Z,70.30
2023-03-21T00:21:43.943Z,69.80
2023-03-21T00:24:09.930Z,69.80
2023-03-21T00:26:38.204Z,69.50
2023-03-21T00:29:06.184Z,69.60
2023-03-21T00:31:34.210Z,69.50
2023-03-21T00:34:03.498Z,69.40
2023-03-21T00:36:31.403Z,70.40
2023-03-21T00:39:00.745Z,69.60
2023-03-21T00:41:41.837Z,70.10
2023-03-21T00:44:11.594Z,70.80
2023-03-21T00:46:47.281Z,71.10
2023-03-21T00:49:21.540Z,71.50
2023-03-21T00:51:51.648Z,73.20
2023-03-21T00:54:20.376Z,72.80
2023-03-21T00:56:48.195Z,73.10
2023-03-21T00:59:16.616Z,73.60
2023-03-21T01:01:46.688Z,74.70
2023-03-21T01:04:16.990Z,75.30
2023-03-21T01:06:46.477Z,76.10
2023-03-21T01:09:16.817Z,76.30
2023-03-21T01:11:45.731Z,76.40
2023-03-21T01:14:22.598Z,77.70
2023-03-21T01:16:52.912Z,77.30
2023-03-21T01:19:35.223Z,78.50
2023-03-21T01:22:10.129Z,79.30
2023-03-21T01:24:46.812Z,79.80
2023-03-21T01:27:20.194Z,79.80
2023-03-21T01:29:48.008Z,79.20
2023-03-21T01:32:16.778Z,79.70
2023-03-21T01:34:44.647Z,80.10
2023-03-21T01:37:14.509Z,79.90
2023-03-21T01:39:42.339Z,79.50
2023-03-21T01:42:13.778Z,79.30
2023-03-21T01:44:54.740Z,79.10
2023-03-21T01:47:22.647Z,78.70
2023-03-21T01:49:53.547Z,79.70
2023-03-21T01:52:40.548Z,79.80
2023-03-21T01:55:12.581Z,79.60
2023-03-21T01:57:58.436Z,82.20
2023-03-21T02:00:33.281Z,84.90
2023-03-21T02:03:13.768Z,85.70
2023-03-21T02:05:52.797Z,86.40
2023-03-21T02:08:30.560Z,87.60
2023-03-21T02:11:07.211Z,87.90
2023-03-21T02:13:36.302Z,88.30
2023-03-21T02:16:13.618Z,87.40
2023-03-21T02:18:50.563Z,87.50
2023-03-21T02:21:46.203Z,87.10
2023-03-21T02:24:54.568Z,86.70
2023-03-21T02:27:29.455Z,86.30
2023-03-21T02:30:50.895Z,88.60
2023-03-21T02:33:50.830Z,88.10
2023-03-21T02:36:27.687Z,88.50
2023-03-21T02:39:07.853Z,86.70
2023-03-21T02:41:46.822Z,86.20
2023-03-21T02:44:22.098Z,86.70
2023-03-21T02:47:05.528Z,86.40
2023-03-21T02:49:40.128Z,87.00
2023-03-21T02:52:17.012Z,86.70
2023-03-21T02:54:51.579Z,86.70
2023-03-21T02:57:20.460Z,87.60
2023-03-21T02:59:55.525Z,88.60
2023-03-21T03:02:29.378Z,89.10
2023-03-21T03:04:58.744Z,90.30
2023-03-21T03:07:38.571Z,90.50
2023-03-21T03:10:22.782Z,90.60
2023-03-21T03:13:00.500Z,90.20
2023-03-21T03:15:39.460Z,90.30
2023-03-21T03:18:13.959Z,90.00
2023-03-21T03:20:51.486Z,90.40
2023-03-21T03:23:28.999Z,90.80
2023-03-21T03:26:05.526Z,90.80
2023-03-21T03:28:38.347Z,89.90
2023-03-21T03:31:10.077Z,89.00
2023-03-21T03:33:41.545Z,88.70
2023-03-21T03:36:28.445Z,88.40
2023-03-21T03:38:58.889Z,89.60
2023-03-21T03:41:30.141Z,89.90
2023-03-21T03:44:05.067Z,89.70
2023-03-21T03:46:37.603Z,88.90
2023-03-21T03:49:12.755Z,88.20
2023-03-21T03:51:45.882Z,86.50
2023-03-21T03:54:17.543Z,86.50
2023-03-21T03:56:47.774Z,86.60
2023-03-21T03:59:19.364Z,86.00
2023-03-21T04:01:47.269Z,84.80
2023-03-21T04:04:16.969Z,84.10
2023-03-21T04:06:45.406Z,84.00
2023-03-21T04:09:21.042Z,84.30
2023-03-21T04:11:54.246Z,86.60
2023-03-21T04:14:22.080Z,90.40
2023-03-21T04:16:50.487Z,90.50
2023-03-21T04:19:18.557Z,90.40
2023-03-21T04:21:47.444Z,90.70
2023-03-21T04:24:15.640Z,91.10
2023-03-21T04:26:43.464Z,91.40
2023-03-21T04:29:12.717Z,91.60
2023-03-21T04:31:41.568Z,91.70
2023-03-21T04:34:12.405Z,91.40
2023-03-21T04:36:43.025Z,91.30
2023-03-21T04:39:13.115Z,91.60
2023-03-21T04:41:41.078Z,91.70
2023-03-21T04:44:09.773Z,91.50
2023-03-21T04:46:39.750Z,91.30
2023-03-21T04:49:08.373Z,91.10
2023-03-21T04:51:36.771Z,90.60
2023-03-21T04:54:05.895Z,91.10
2023-03-21T04:56:35.646Z,91.40
2023-03-21T04:59:07.569Z,91.60
2023-03-21T05:01:35.442Z,91.70
2023-03-21T05:04:05.408Z,91.50
2023-03-21T05:06:33.899Z,92.60
2023-03-21T05:09:05.532Z,92.90
2023-03-21T05:11:35.915Z,92.90
2023-03-21T05:14:03.796Z,92.70
2023-03-21T05:16:31.690Z,92.60
2023-03-21T05:19:05.180Z,92.50
2023-03-21T05:21:41.544Z,92.40
2023-03-21T05:24:12.011Z,92.40
2023-03-21T05:26:40.223Z,92.30
2023-03-21T05:29:08.268Z,92.30
2023-03-21T05:31:36.564Z,92.50
2023-03-21T05:34:04.712Z,92.40
2023-03-21T05:36:36.052Z,92.60
2023-03-21T05:39:04.656Z,92.90
2023-03-21T05:41:32.701Z,92.90
2023-03-21T05:44:00.767Z,92.90
2023-03-21T05:46:28.880Z,92.70
2023-03-21T05:48:56.927Z,92.80
2023-03-21T05:51:24.783Z,92.80
2023-03-21T05:53:54.013Z,92.70
2023-03-21T05:56:21.922Z,92.80
2023-03-21T05:58:49.752Z,92.50
2023-03-21T06:01:17.615Z,92.20
2023-03-21T06:03:45.497Z,91.10
2023-03-21T06:06:13.423Z,90.20
2023-03-21T06:08:41.297Z,89.80
2023-03-21T06:11:21.715Z,89.10
2023-03-21T06:13:49.582Z,88.30
2023-03-21T06:16:17.455Z,89.10
2023-03-21T06:18:45.316Z,89.90
2023-03-21T06:21:13.216Z,90.70
2023-03-21T06:23:41.353Z,90.90
2023-03-21T06:26:10.783Z,90.70
2023-03-21T06:28:38.631Z,90.70
2023-03-21T06:31:07.282Z,91.00
2023-03-21T06:33:35.209Z,90.70
2023-03-21T06:36:03.230Z,90.90
2023-03-21T06:38:31.738Z,91.10
2023-03-21T06:40:59.879Z,91.10
2023-03-21T06:43:29.072Z,91.30
2023-03-21T06:45:56.952Z,90.60
2023-03-21T06:48:24.940Z,89.10
2023-03-21T06:50:53.491Z,87.80
2023-03-21T06:53:24.888Z,86.70
2023-03-21T06:55:53.146Z,88.70
2023-03-21T06:58:21.670Z,87.30
2023-03-21T07:00:51.133Z,85.60
2023-03-21T07:03:19.217Z,82.90
2023-03-21T07:05:47.688Z,82.80
2023-03-21T07:08:15.558Z,83.70
2023-03-21T07:10:45.800Z,83.60
2023-03-21T07:13:14.022Z,80.80
2023-03-21T07:15:41.957Z,80.00
2023-03-21T07:18:11.501Z,79.10
2023-03-21T07:20:39.367Z,78.20
2023-03-21T07:23:08.649Z,78.20
2023-03-21T07:25:37.105Z,78.50
2023-03-21T07:28:09.066Z,78.70
2023-03-21T07:30:37.097Z,79.70
2023-03-21T07:33:05.810Z,76.00
2023-03-21T07:35:36.702Z,76.30
2023-03-21T07:38:05.381Z,70.80
2023-03-21T07:40:33.513Z,64.20
2023-03-21T07:45:30.428Z,60.80
2023-03-21T07:47:58.407Z,56.40
2023-03-21T07:50:26.296Z,51.50
2023-03-21T07:52:55.565Z,50.80
2023-03-21T07:55:23.469Z,46.60
2023-03-21T07:57:52.082Z,46.10
2023-03-21T08:00:23.089Z,46.80
2023-03-21T08:02:57.845Z,47.40
2023-03-21T08:05:28.395Z,48.30
2023-03-21T08:07:57.658Z,47.20
2023-03-21T08:10:25.578Z,46.00
2023-03-21T08:12:53.973Z,46.10
2023-03-21T08:15:21.950Z,45.80
2023-03-21T08:17:50.277Z,45.40
2023-03-21T08:20:21.279Z,45.40
2023-03-21T08:22:50.096Z,41.70
2023-03-21T08:25:21.720Z,43.60
2023-03-21T08:27:50.500Z,41.90
2023-03-21T08:30:21.144Z,42.10
2023-03-21T08:32:49.649Z,42.40
2023-03-21T08:35:19.243Z,42.40
2023-03-21T08:37:47.119Z,42.00
2023-03-21T08:40:16.916Z,41.40
2023-03-21T08:42:46.537Z,40.80
2023-03-21T08:45:15.322Z,41.90
2023-03-21T08:47:43.754Z,41.00
2023-03-21T08:50:14.632Z,40.10
2023-03-21T08:52:42.658Z,40.70
2023-03-21T08:55:12.129Z,40.50
2023-03-21T08:57:40.052Z,39.40
2023-03-21T09:00:14.310Z,39.60
2023-03-21T09:02:43.338Z,38.20
2023-03-21T09:05:12.872Z,38.00
2023-03-21T09:07:41.637Z,39.50
2023-03-21T09:10:25.883Z,37.80
2023-03-21T09:12:55.521Z,36.90
2023-03-21T09:15:28.848Z,37.40
2023-03-21T09:17:58.773Z,36.70
2023-03-21T09:20:32.986Z,38.30
2023-03-21T09:23:01.685Z,36.60
2023-03-21T09:25:31.292Z,37.50
2023-03-21T09:28:00.247Z,38.10
2023-03-21T09:30:30.110Z,38.40
2023-03-21T09:32:59.884Z,37.00
2023-03-21T09:35:28.349Z,35.90
2023-03-21T09:37:58.966Z,36.00
2023-03-21T09:40:43.648Z,36.90
2023-03-21T09:43:24.326Z,37.10
2023-03-21T09:45:59.838Z,33.50
2023-03-21T09:48:39.644Z,34.90
2023-03-21T09:51:17.658Z,33.70
2023-03-21T09:53:50.101Z,35.30
2023-03-21T09:56:19.102Z,35.10
2023-03-21T09:58:53.025Z,38.20
2023-03-21T10:01:28.381Z,37.90
2023-03-21T10:03:57.650Z,35.80
2023-03-21T10:06:30.564Z,35.00
2023-03-21T10:09:07.256Z,34.60
2023-03-21T10:11:42.943Z,33.00
2023-03-21T10:14:18.096Z,33.50
2023-03-21T10:16:49.647Z,35.00
2023-03-21T10:19:19.721Z,34.50
2023-03-21T10:22:00.710Z,34.00
2023-03-21T10:24:32.728Z,34.10
2023-03-21T10:27:02.480Z,34.90
2023-03-21T10:29:37.038Z,33.30
2023-03-21T10:32:09.008Z,33.80
2023-03-21T10:34:39.243Z,35.60
2023-03-21T10:37:08.030Z,35.60
2023-03-21T10:39:38.018Z,35.70
2023-03-21T10:42:06.120Z,35.90
2023-03-21T10:44:36.543Z,36.40
2023-03-21T10:47:08.549Z,36.10
2023-03-21T10:50:06.475Z,35.70
2023-03-21T10:52:29.764Z,34.90
2023-03-21T10:55:09.602Z,37.70
2023-03-21T10:57:38.401Z,40.00
2023-03-21T11:00:14.971Z,37.60
2023-03-21T11:02:48.561Z,39.10
2023-03-21T11:05:22.949Z,38.40
2023-03-21T11:07:59.566Z,38.40
2023-03-21T11:10:33.190Z,38.40
2023-03-21T11:13:06.640Z,39.10
2023-03-21T11:15:42.169Z,40.00
2023-03-21T11:18:21.160Z,39.00
2023-03-21T11:20:54.220Z,39.00
2023-03-21T11:23:23.172Z,37.80
2023-03-21T11:25:52.157Z,38.80
2023-03-21T11:28:23.412Z,42.40
2023-03-21T11:30:54.251Z,40.10
2023-03-21T11:33:28.108Z,38.70
2023-03-21T11:36:01.823Z,39.30
2023-03-21T11:38:33.854Z,40.10
2023-03-21T11:41:03.840Z,41.50
2023-03-21T11:43:36.014Z,39.20
2023-03-21T11:46:09.531Z,40.00
2023-03-21T11:48:41.513Z,40.80
2023-03-21T11:51:23.557Z,40.00
2023-03-21T11:54:03.457Z,40.50
2023-03-21T11:56:35.375Z,40.20
2023-03-21T11:59:19.162Z,39.80
2023-03-21T12:02:03.384Z,38.30
2023-03-21T12:04:44.510Z,42.50
2023-03-21T12:07:26.427Z,41.70
2023-03-21T12:10:02.461Z,39.40
2023-03-21T12:12:39.947Z,40.20
2023-03-21T12:15:18.147Z,40.10
2023-03-21T12:17:55.401Z,40.50
2023-03-21T12:20:33.274Z,40.20
2023-03-21T12:23:27.396Z,39.90
2023-03-21T12:26:04.829Z,41.50
2023-03-21T12:28:43.888Z,41.50
2023-03-21T12:31:21.629Z,40.50
2023-03-21T12:34:13.475Z,41.60
2023-03-21T12:36:58.160Z,41.30
2023-03-21T12:39:30.800Z,41.70
2023-03-21T12:42:10.084Z,42.20
2023-03-21T12:44:41.839Z,41.40
2023-03-21T12:47:14.506Z,40.20
2023-03-21T12:49:50.708Z,39.30
2023-03-21T12:52:24.889Z,38.10
2023-03-21T12:54:57.317Z,37.70
2023-03-21T12:57:30.496Z,37.40
2023-03-21T13:00:09.892Z,36.50
2023-03-21T13:02:43.116Z,36.30
2023-03-21T13:05:19.366Z,36.20
2023-03-21T13:07:52.760Z,36.10
2023-03-21T13:10:23.209Z,36.20
2023-03-21T13:13:04.848Z,36.20
2023-03-21T13:15:50.622Z,36.20
2023-03-21T13:18:37.539Z,37.70
2023-03-21T13:21:14.071Z,38.00
2023-03-21T13:23:59.346Z,36.90
2023-03-21T13:26:35.290Z,36.90
2023-03-21T13:29:03.213Z,38.00
2023-03-21T13:31:48.855Z,38.10
2023-03-21T13:34:22.472Z,39.70
2023-03-21T13:36:51.673Z,39.60
2023-03-21T13:39:27.441Z,38.80
2023-03-21T13:41:56.003Z,39.80
2023-03-21T13:44:36.872Z,40.80
2023-03-21T13:47:07.226Z,40.20
2023-03-21T13:49:37.039Z,41.00
2023-03-21T13:52:29.005Z,40.90
2023-03-21T13:54:59.022Z,41.60
2023-03-21T13:57:40.056Z,41.60
2023-03-21T14:00:21.577Z,42.70
2023-03-21T14:03:00.726Z,43.10
2023-03-21T14:05:30.120Z,42.90
2023-03-21T14:08:13.612Z,44.50
2023-03-21T14:10:49.017Z,44.50
2023-03-21T14:13:20.224Z,42.90
2023-03-21T14:15:55.932Z,43.80
2023-03-21T14:18:34.926Z,44.40
2023-03-21T14:21:23.706Z,45.20
2023-03-21T14:23:58.443Z,46.90
2023-03-21T14:26:30.284Z,48.20
2023-03-21T14:28:58.649Z,49.90
2023-03-21T14:31:27.509Z,52.50
2023-03-21T14:33:58.752Z,53.20
2023-03-21T14:36:29.008Z,55.30
2023-03-21T14:39:03.358Z,57.40
2023-03-21T14:41:34.221Z,59.70
2023-03-21T14:44:12.691Z,62.40
2023-03-21T14:46:41.837Z,64.10
2023-03-21T14:49:22.263Z,69.50
2023-03-21T14:51:54.179Z,70.60
2023-03-21T14:54:22.952Z,75.40
2023-03-21T14:56:56.538Z,76.20
2023-03-21T14:59:28.857Z,80.80
2023-03-21T15:01:56.760Z,81.50
2023-03-21T15:04:24.728Z,83.30
2023-03-21T15:06:56.104Z,81.40
2023-03-21T15:09:30.232Z,83.40
2023-03-21T15:12:00.091Z,84.00
2023-03-21T15:14:32.332Z,84.90
2023-03-21T15:17:04.036Z,84.70
2023-03-21T15:19:34.855Z,85.70
2023-03-21T15:22:10.322Z,86.70
2023-03-21T15:24:41.571Z,87.80
2023-03-21T15:27:17.465Z,87.60
2023-03-21T15:29:46.701Z,88.60
2023-03-21T15:32:17.996Z,88.20
2023-03-21T15:34:46.801Z,88.50
2023-03-21T15:37:18.853Z,88.80
2023-03-21T15:39:49.225Z,88.40
2023-03-21T15:42:30.625Z,87.80
2023-03-21T15:45:02.917Z,89.10
2023-03-21T15:47:42.299Z,89.10
2023-03-21T15:50:12.751Z,90.80
2023-03-21T15:52:40.651Z,89.20
2023-03-21T15:55:26.899Z,90.10
2023-03-21T15:58:01.813Z,90.60
2023-03-21T16:00:39.879Z,90.60
2023-03-21T16:03:16.891Z,90.80
2023-03-21T16:06:04.149Z,90.90
2023-03-21T16:08:35.817Z,91.50
2023-03-21T16:11:16.737Z,91.50
2023-03-21T16:13:46.269Z,91.90
2023-03-21T16:16:20.554Z,92.30
2023-03-21T16:18:48.758Z,92.80
2023-03-21T16:21:18.721Z,93.30
2023-03-21T16:23:46.693Z,93.10
2023-03-21T16:26:17.459Z,94.00
2023-03-21T16:28:47.406Z,93.90
2023-03-21T16:31:17.876Z,93.90
2023-03-21T16:33:47.402Z,93.60
2023-03-21T16:36:18.004Z,94.10
2023-03-21T16:38:46.582Z,94.10
2023-03-21T16:41:15.317Z,94.50
2023-03-21T16:43:43.895Z,94.40
2023-03-21T16:46:15.687Z,95.20
2023-03-21T16:48:44.409Z,95.30
2023-03-21T16:51:16.133Z,94.60
2023-03-21T16:53:44.198Z,95.30
2023-03-21T16:56:17.521Z,94.90
2023-03-21T16:58:45.570Z,95.00
2023-03-21T17:01:20.750Z,95.70
2023-03-21T17:03:49.539Z,95.50
2023-03-21T17:06:19.455Z,95.80
2023-03-21T17:08:47.759Z,95.80
2023-03-21T17:11:17.797Z,95.60
2023-03-21T17:13:45.687Z,95.40
2023-03-21T17:16:16.304Z,95.70
2023-03-21T17:18:45.021Z,95.30
2023-03-21T17:21:14.644Z,95.70
2023-03-21T17:23:42.801Z,95.80
2023-03-21T17:26:11.218Z,95.80
2023-03-21T17:28:39.836Z,96.50
2023-03-21T17:31:13.968Z,96.50
2023-03-21T17:33:43.765Z,96.70
2023-03-21T17:36:15.042Z,97.00
2023-03-21T17:38:43.798Z,97.20
2023-03-21T17:41:13.369Z,97.60
2023-03-21T17:43:41.496Z,97.20
2023-03-21T17:46:14.028Z,97.30
2023-03-21T17:48:43.327Z,97.60
2023-03-21T17:51:14.767Z,97.50
2023-03-21T17:53:42.682Z,97.10
2023-03-21T17:56:25.808Z,97.30
2023-03-21T17:58:53.947Z,97.50
2023-03-21T18:01:23.178Z,97.50
2023-03-21T18:03:54.730Z,97.50
2023-03-21T18:06:25.539Z,97.80
2023-03-21T18:08:54.062Z,97.70
2023-03-21T18:11:24.068Z,98.00
2023-03-21T18:14:03.596Z,97.90
2023-03-21T18:16:38.119Z,98.30
2023-03-21T18:19:07.348Z,98.20
2023-03-21T18:21:35.822Z,98.30
2023-03-21T18:24:03.955Z,98.30
2023-03-21T18:26:31.834Z,98.30
2023-03-21T18:32:04.482Z,98.30
2023-03-21T18:34:35.316Z,98.40
2023-03-21T18:37:04.380Z,98.40
2023-03-21T18:39:33.017Z,98.50
2023-03-21T18:42:04.693Z,98.40
2023-03-21T18:44:38.550Z,97.70
2023-03-21T18:47:07.541Z,97.70
2023-03-21T18:52:26.476Z,98.20
2023-03-21T18:54:54.720Z,97.90
2023-03-21T18:57:39.038Z,98.20
2023-03-21T19:00:12.718Z,97.90
2023-03-21T19:02:45.628Z,97.80
2023-03-21T19:05:16.915Z,98.10
2023-03-21T19:07:44.982Z,98.10
2023-03-21T19:10:18.178Z,98.10
2023-03-21T19:12:47.743Z,97.70
2023-03-21T19:15:17.778Z,98.10
2023-03-21T19:20:35.175Z,98.50
2023-03-21T19:23:03.292Z,98.30
2023-03-21T19:25:31.274Z,98.30
2023-03-21T19:27:59.120Z,98.30
2023-03-21T19:30:27.784Z,98.40
2023-03-21T19:32:55.879Z,98.40
2023-03-21T19:35:23.828Z,98.30
2023-03-21T19:37:53.068Z,98.30
2023-03-21T19:40:21.436Z,98.30
2023-03-21T19:42:49.318Z,98.30
2023-03-21T19:45:17.266Z,98.10
2023-03-21T19:47:45.230Z,97.80
2023-03-21T19:50:47.202Z,98.00
2023-03-21T19:53:02.322Z,98.00
2023-03-21T19:55:30.864Z,98.00
2023-03-21T19:57:59.140Z,97.80
2023-03-21T20:00:27.183Z,98.00
2023-03-21T20:02:55.495Z,97.90
2023-03-21T20:05:25.509Z,97.90
2023-03-21T20:07:55.385Z,97.60
2023-03-21T20:10:27.377Z,96.80
2023-03-21T20:12:55.693Z,97.30
2023-03-21T20:15:26.814Z,97.20
2023-03-21T20:17:57.115Z,97.00
2023-03-21T20:20:25.253Z,97.30
2023-03-21T20:23:06.331Z,97.80
2023-03-21T20:25:39.757Z,97.10
2023-03-21T20:28:16.288Z,96.80
2023-03-21T20:30:49.788Z,96.60
2023-03-21T20:33:18.008Z,96.80
2023-03-21T20:36:29.404Z,97.20
2023-03-21T20:38:35.563Z,97.60
2023-03-21T20:41:06.421Z,97.30
2023-03-21T20:46:22.650Z,97.40
2023-03-21T20:48:50.663Z,97.60
2023-03-21T20:52:27.516Z,97.80
2023-03-21T20:54:07.110Z,97.60
2023-03-21T20:56:36.590Z,97.60
2023-03-21T20:59:17.398Z,97.60
2023-03-21T21:01:48.809Z,97.80
2023-03-21T21:04:19.956Z,98.00
2023-03-21T21:06:48.398Z,98.20
2023-03-21T21:09:16.619Z,98.20
2023-03-21T21:14:35.495Z,97.60
2023-03-21T21:17:20.994Z,97.90
2023-03-21T21:19:51.197Z,97.80
2023-03-21T21:22:19.173Z,98.30
2023-03-21T21:24:47.187Z,98.20
2023-03-21T21:27:16.389Z,98.10
2023-03-21T21:29:47.716Z,98.30
2023-03-21T21:32:16.987Z,98.50
2023-03-21T21:34:45.622Z,98.50
2023-03-21T21:37:13.653Z,98.40
2023-03-21T21:39:42.057Z,98.10
2023-03-21T21:42:09.993Z,98.20
2023-03-21T21:44:44.044Z,97.90
2023-03-21T21:47:12.188Z,98.20
2023-03-21T21:49:40.110Z,98.50
2023-03-21T21:52:08.265Z,98.40
2023-03-21T21:54:36.426Z,98.40
2023-03-21T21:57:05.686Z,98.70
2023-03-21T21:59:33.990Z,98.10
2023-03-21T22:02:05.617Z,98.00
2023-03-21T22:04:34.644Z,97.90
2023-03-21T22:07:03.003Z,97.80
2023-03-21T22:09:30.962Z,97.90
2023-03-21T22:11:58.874Z,97.60
2023-03-21T22:14:26.761Z,97.90
2023-03-21T22:16:54.964Z,98.20
2023-03-21T22:19:24.139Z,98.50
2023-03-21T22:21:53.629Z,98.30
2023-03-21T22:24:21.525Z,97.80
2023-03-21T22:26:49.448Z,97.70
2023-03-21T22:29:17.810Z,97.70
2023-03-21T22:31:47.334Z,97.40
2023-03-21T22:34:15.471Z,97.30
2023-03-21T22:36:47.011Z,97.10
2023-03-21T22:39:14.867Z,97.40
2023-03-21T22:41:42.734Z,97.60
2023-03-21T22:44:10.816Z,97.60
2023-03-21T22:46:38.925Z,97.60
2023-03-21T22:49:07.141Z,97.90
2023-03-21T22:51:35.078Z,97.70
2023-03-21T22:54:04.369Z,97.90
2023-03-21T22:56:32.259Z,97.90
2023-03-21T22:59:01.081Z,97.70
2023-03-21T23:01:29.023Z,98.00
2023-03-21T23:03:56.993Z,98.00
2023-03-21T23:06:24.908Z,98.00
2023-03-21T23:08:52.750Z,98.00
2023-03-21T23:11:21.959Z,98.00
2023-03-21T23:13:56.077Z,98.30
2023-03-21T23:16:34.786Z,98.00
2023-03-21T23:19:03.223Z,97.90
2023-03-21T23:21:31.647Z,98.00
2023-03-21T23:23:59.557Z,97.90
2023-03-21T23:26:29.525Z,98.00
2023-03-21T23:28:57.575Z,97.70
2023-03-21T23:31:28.330Z,97.40
2023-03-21T23:33:58.748Z,97.80
2023-03-21T23:36:26.991Z,97.90
2023-03-21T23:38:55.184Z,97.80
2023-03-21T23:41:24.780Z,97.60
2023-03-21T23:43:54.176Z,97.50
2023-03-21T23:46:22.132Z,97.40
2023-03-21T23:48:50.111Z,97.50
2023-03-21T23:51:19.065Z,97.30
2023-03-21T23:53:47.431Z,97.20
2023-03-21T23:56:16.852Z,97.10
2023-03-21T23:58:45.133Z,97.00
